<?xml version="1.0" encoding="UTF-8" standalone="no" ?>
<gpx xmlns="http://www.topografix.com/GPX/1/1" xmlns:xsi="http://www.w3.org/2001/XMLSchema-instance" xsi:schemaLocation="http://www.topografix.com/GPX/1/1 http://www.topografix.com/GPX/1/1/gpx.xsd" version="1.1" creator="VisuGPX - https://www.visugpx.com">
  <metadata>
    <name>La Chartreuse de la Verne 16 km à reconnaitre</name>
    <desc><![CDATA[Rando prévue le 30 mai à reconnaitre]]></desc>
  </metadata>
  <trk>
    <name><![CDATA[Vers la Chartreuse de la Verne]]></name>
    <trkseg>
      <trkpt lat="43.22563" lon="6.44977">
        <ele>91</ele>
        <time>2017-02-09T11:11:49+01:00</time>
      </trkpt>
      <trkpt lat="43.22551" lon="6.44941">
        <ele>93</ele>
        <time>2017-02-09T11:11:54+01:00</time>
      </trkpt>
      <trkpt lat="43.22575" lon="6.44886">
        <ele>87</ele>
        <time>2017-02-09T11:11:59+01:00</time>
      </trkpt>
      <trkpt lat="43.22551" lon="6.4483">
        <ele>96</ele>
        <time>2017-02-09T11:12:04+01:00</time>
      </trkpt>
      <trkpt lat="43.22555" lon="6.44796">
        <ele>98</ele>
        <time>2017-02-09T11:12:09+01:00</time>
      </trkpt>
      <trkpt lat="43.22583" lon="6.44777">
        <ele>93</ele>
        <time>2017-02-09T11:12:14+01:00</time>
      </trkpt>
      <trkpt lat="43.22601" lon="6.44748">
        <ele>90</ele>
        <time>2017-02-09T11:12:19+01:00</time>
      </trkpt>
      <trkpt lat="43.22604" lon="6.44715">
        <ele>89</ele>
        <time>2017-02-09T11:12:24+01:00</time>
      </trkpt>
      <trkpt lat="43.22579" lon="6.44668">
        <ele>100</ele>
        <time>2017-02-09T11:12:29+01:00</time>
      </trkpt>
      <trkpt lat="43.22576" lon="6.44613">
        <ele>104</ele>
        <time>2017-02-09T11:12:34+01:00</time>
      </trkpt>
      <trkpt lat="43.22598" lon="6.44579">
        <ele>96</ele>
        <time>2017-02-09T11:12:39+01:00</time>
      </trkpt>
      <trkpt lat="43.22599" lon="6.4451">
        <ele>103</ele>
        <time>2017-02-09T11:12:44+01:00</time>
      </trkpt>
      <trkpt lat="43.22619" lon="6.44474">
        <ele>100</ele>
        <time>2017-02-09T11:12:49+01:00</time>
      </trkpt>
      <trkpt lat="43.22619" lon="6.44428">
        <ele>106</ele>
        <time>2017-02-09T11:12:54+01:00</time>
      </trkpt>
      <trkpt lat="43.22637" lon="6.44376">
        <ele>105</ele>
        <time>2017-02-09T11:12:59+01:00</time>
      </trkpt>
      <trkpt lat="43.22673" lon="6.44326">
        <ele>99</ele>
        <time>2017-02-09T11:13:04+01:00</time>
      </trkpt>
      <trkpt lat="43.22658" lon="6.44233">
        <ele>104</ele>
        <time>2017-02-09T11:13:09+01:00</time>
      </trkpt>
      <trkpt lat="43.22618" lon="6.44187">
        <ele>111</ele>
        <time>2017-02-09T11:13:14+01:00</time>
      </trkpt>
      <trkpt lat="43.2259" lon="6.44126">
        <ele>109</ele>
        <time>2017-02-09T11:13:19+01:00</time>
      </trkpt>
      <trkpt lat="43.22497" lon="6.44039">
        <ele>114</ele>
        <time>2017-02-09T11:13:24+01:00</time>
      </trkpt>
      <trkpt lat="43.22521" lon="6.44003">
        <ele>105</ele>
        <time>2017-02-09T11:13:29+01:00</time>
      </trkpt>
      <trkpt lat="43.22482" lon="6.43888">
        <ele>121</ele>
        <time>2017-02-09T11:13:34+01:00</time>
      </trkpt>
      <trkpt lat="43.22661" lon="6.43956">
        <ele>100</ele>
        <time>2017-02-09T11:13:39+01:00</time>
      </trkpt>
      <trkpt lat="43.22703" lon="6.43921">
        <ele>102</ele>
        <time>2017-02-09T11:13:44+01:00</time>
      </trkpt>
      <trkpt lat="43.22754" lon="6.43826">
        <ele>105</ele>
        <time>2017-02-09T11:13:49+01:00</time>
      </trkpt>
      <trkpt lat="43.22755" lon="6.43795">
        <ele>108</ele>
        <time>2017-02-09T11:13:54+01:00</time>
      </trkpt>
      <trkpt lat="43.22779" lon="6.43763">
        <ele>106</ele>
        <time>2017-02-09T11:13:59+01:00</time>
      </trkpt>
      <trkpt lat="43.22768" lon="6.43656">
        <ele>123</ele>
        <time>2017-02-09T11:14:04+01:00</time>
      </trkpt>
      <trkpt lat="43.2286" lon="6.4369">
        <ele>102</ele>
        <time>2017-02-09T11:14:09+01:00</time>
      </trkpt>
      <trkpt lat="43.22926" lon="6.43674">
        <ele>104</ele>
        <time>2017-02-09T11:14:14+01:00</time>
      </trkpt>
      <trkpt lat="43.22973" lon="6.43646">
        <ele>102</ele>
        <time>2017-02-09T11:14:19+01:00</time>
      </trkpt>
      <trkpt lat="43.22985" lon="6.43611">
        <ele>104</ele>
        <time>2017-02-09T11:14:24+01:00</time>
      </trkpt>
      <trkpt lat="43.22974" lon="6.43559">
        <ele>112</ele>
        <time>2017-02-09T11:14:29+01:00</time>
      </trkpt>
      <trkpt lat="43.22983" lon="6.43477">
        <ele>111</ele>
        <time>2017-02-09T11:14:34+01:00</time>
      </trkpt>
      <trkpt lat="43.22995" lon="6.43413">
        <ele>107</ele>
        <time>2017-02-09T11:14:39+01:00</time>
      </trkpt>
      <trkpt lat="43.22995" lon="6.43349">
        <ele>111</ele>
        <time>2017-02-09T11:14:44+01:00</time>
      </trkpt>
      <trkpt lat="43.23004" lon="6.43329">
        <ele>108</ele>
        <time>2017-02-09T11:14:49+01:00</time>
      </trkpt>
      <trkpt lat="43.23009" lon="6.43279">
        <ele>110</ele>
        <time>2017-02-09T11:14:54+01:00</time>
      </trkpt>
      <trkpt lat="43.23059" lon="6.43237">
        <ele>100</ele>
        <time>2017-02-09T11:14:59+01:00</time>
      </trkpt>
      <trkpt lat="43.23078" lon="6.43193">
        <ele>98</ele>
        <time>2017-02-09T11:15:04+01:00</time>
      </trkpt>
      <trkpt lat="43.23056" lon="6.43104">
        <ele>118</ele>
        <time>2017-02-09T11:15:09+01:00</time>
      </trkpt>
      <trkpt lat="43.23124" lon="6.43079">
        <ele>99</ele>
        <time>2017-02-09T11:15:14+01:00</time>
      </trkpt>
      <trkpt lat="43.23167" lon="6.42908">
        <ele>101</ele>
        <time>2017-02-09T11:15:19+01:00</time>
      </trkpt>
      <trkpt lat="43.23178" lon="6.42745">
        <ele>96</ele>
        <time>2017-02-09T11:15:24+01:00</time>
      </trkpt>
      <trkpt lat="43.2316" lon="6.42722">
        <ele>99</ele>
        <time>2017-02-09T11:15:29+01:00</time>
      </trkpt>
      <trkpt lat="43.23124" lon="6.42705">
        <ele>109</ele>
        <time>2017-02-09T11:15:34+01:00</time>
      </trkpt>
      <trkpt lat="43.23092" lon="6.42471">
        <ele>109</ele>
        <time>2017-02-09T11:15:39+01:00</time>
      </trkpt>
      <trkpt lat="43.2311" lon="6.4245">
        <ele>113</ele>
        <time>2017-02-09T11:15:44+01:00</time>
      </trkpt>
      <trkpt lat="43.2315" lon="6.42529">
        <ele>108</ele>
        <time>2017-02-09T11:15:49+01:00</time>
      </trkpt>
      <trkpt lat="43.2318" lon="6.42579">
        <ele>103</ele>
        <time>2017-02-09T11:15:54+01:00</time>
      </trkpt>
      <trkpt lat="43.23216" lon="6.42609">
        <ele>103</ele>
        <time>2017-02-09T11:15:59+01:00</time>
      </trkpt>
      <trkpt lat="43.23236" lon="6.42609">
        <ele>105</ele>
        <time>2017-02-09T11:16:04+01:00</time>
      </trkpt>
      <trkpt lat="43.23303" lon="6.42673">
        <ele>101</ele>
        <time>2017-02-09T11:16:09+01:00</time>
      </trkpt>
      <trkpt lat="43.23345" lon="6.4271">
        <ele>102</ele>
        <time>2017-02-09T11:16:14+01:00</time>
      </trkpt>
      <trkpt lat="43.23392" lon="6.42717">
        <ele>104</ele>
        <time>2017-02-09T11:16:19+01:00</time>
      </trkpt>
      <trkpt lat="43.23516" lon="6.42631">
        <ele>116</ele>
        <time>2017-02-09T11:16:24+01:00</time>
      </trkpt>
      <trkpt lat="43.23567" lon="6.42614">
        <ele>112</ele>
        <time>2017-02-09T11:16:29+01:00</time>
      </trkpt>
      <trkpt lat="43.23605" lon="6.42612">
        <ele>106</ele>
        <time>2017-02-09T11:16:34+01:00</time>
      </trkpt>
      <trkpt lat="43.23695" lon="6.42574">
        <ele>94</ele>
        <time>2017-02-09T11:16:39+01:00</time>
      </trkpt>
      <trkpt lat="43.23633" lon="6.42427">
        <ele>111</ele>
        <time>2017-02-09T11:16:44+01:00</time>
      </trkpt>
      <trkpt lat="43.23596" lon="6.42383">
        <ele>122</ele>
        <time>2017-02-09T11:16:49+01:00</time>
      </trkpt>
      <trkpt lat="43.23582" lon="6.423">
        <ele>120</ele>
        <time>2017-02-09T11:16:54+01:00</time>
      </trkpt>
      <trkpt lat="43.23594" lon="6.42236">
        <ele>117</ele>
        <time>2017-02-09T11:16:59+01:00</time>
      </trkpt>
      <trkpt lat="43.23593" lon="6.42183">
        <ele>119</ele>
        <time>2017-02-09T11:17:04+01:00</time>
      </trkpt>
      <trkpt lat="43.2361" lon="6.42091">
        <ele>122</ele>
        <time>2017-02-09T11:17:09+01:00</time>
      </trkpt>
      <trkpt lat="43.23629" lon="6.42057">
        <ele>119</ele>
        <time>2017-02-09T11:17:14+01:00</time>
      </trkpt>
      <trkpt lat="43.23653" lon="6.41923">
        <ele>119</ele>
        <time>2017-02-09T11:17:19+01:00</time>
      </trkpt>
      <trkpt lat="43.23682" lon="6.41802">
        <ele>122</ele>
        <time>2017-02-09T11:17:24+01:00</time>
      </trkpt>
      <trkpt lat="43.23723" lon="6.41846">
        <ele>108</ele>
        <time>2017-02-09T11:17:29+01:00</time>
      </trkpt>
      <trkpt lat="43.23752" lon="6.4186">
        <ele>104</ele>
        <time>2017-02-09T11:17:34+01:00</time>
      </trkpt>
      <trkpt lat="43.23793" lon="6.41864">
        <ele>105</ele>
        <time>2017-02-09T11:17:39+01:00</time>
      </trkpt>
      <trkpt lat="43.23827" lon="6.41807">
        <ele>110</ele>
        <time>2017-02-09T11:17:44+01:00</time>
      </trkpt>
      <trkpt lat="43.23852" lon="6.41746">
        <ele>119</ele>
        <time>2017-02-09T11:17:49+01:00</time>
      </trkpt>
      <trkpt lat="43.23898" lon="6.41589">
        <ele>116</ele>
        <time>2017-02-09T11:17:54+01:00</time>
      </trkpt>
      <trkpt lat="43.23885" lon="6.41474">
        <ele>129</ele>
        <time>2017-02-09T11:17:59+01:00</time>
      </trkpt>
      <trkpt lat="43.23909" lon="6.41428">
        <ele>121</ele>
        <time>2017-02-09T11:18:04+01:00</time>
      </trkpt>
      <trkpt lat="43.23915" lon="6.41347">
        <ele>132</ele>
        <time>2017-02-09T11:18:09+01:00</time>
      </trkpt>
      <trkpt lat="43.23955" lon="6.41332">
        <ele>124</ele>
        <time>2017-02-09T11:18:14+01:00</time>
      </trkpt>
      <trkpt lat="43.23986" lon="6.41287">
        <ele>128</ele>
        <time>2017-02-09T11:18:19+01:00</time>
      </trkpt>
      <trkpt lat="43.24016" lon="6.41289">
        <ele>121</ele>
        <time>2017-02-09T11:18:24+01:00</time>
      </trkpt>
      <trkpt lat="43.24018" lon="6.41267">
        <ele>125</ele>
        <time>2017-02-09T11:18:29+01:00</time>
      </trkpt>
      <trkpt lat="43.24043" lon="6.4124">
        <ele>121</ele>
        <time>2017-02-09T11:18:34+01:00</time>
      </trkpt>
      <trkpt lat="43.23983" lon="6.41081">
        <ele>160</ele>
        <time>2017-02-09T11:18:39+01:00</time>
      </trkpt>
      <trkpt lat="43.23944" lon="6.41077">
        <ele>181</ele>
        <time>2017-02-09T11:18:44+01:00</time>
      </trkpt>
      <trkpt lat="43.23926" lon="6.41078">
        <ele>190</ele>
        <time>2017-02-09T11:18:49+01:00</time>
      </trkpt>
      <trkpt lat="43.23917" lon="6.41049">
        <ele>200</ele>
        <time>2017-02-09T11:18:54+01:00</time>
      </trkpt>
      <trkpt lat="43.23975" lon="6.4099">
        <ele>184</ele>
        <time>2017-02-09T11:18:59+01:00</time>
      </trkpt>
      <trkpt lat="43.24018" lon="6.40935">
        <ele>184</ele>
        <time>2017-02-09T11:19:04+01:00</time>
      </trkpt>
      <trkpt lat="43.24023" lon="6.40874">
        <ele>203</ele>
        <time>2017-02-09T11:19:09+01:00</time>
      </trkpt>
      <trkpt lat="43.24073" lon="6.40821">
        <ele>195</ele>
        <time>2017-02-09T11:19:14+01:00</time>
      </trkpt>
      <trkpt lat="43.24055" lon="6.40734">
        <ele>221</ele>
        <time>2017-02-09T11:19:19+01:00</time>
      </trkpt>
      <trkpt lat="43.24072" lon="6.40691">
        <ele>217</ele>
        <time>2017-02-09T11:19:24+01:00</time>
      </trkpt>
      <trkpt lat="43.24062" lon="6.40651">
        <ele>221</ele>
        <time>2017-02-09T11:19:29+01:00</time>
      </trkpt>
      <trkpt lat="43.23973" lon="6.40636">
        <ele>250</ele>
        <time>2017-02-09T11:19:34+01:00</time>
      </trkpt>
      <trkpt lat="43.23923" lon="6.40594">
        <ele>260</ele>
        <time>2017-02-09T11:19:39+01:00</time>
      </trkpt>
      <trkpt lat="43.23896" lon="6.40547">
        <ele>269</ele>
        <time>2017-02-09T11:19:44+01:00</time>
      </trkpt>
      <trkpt lat="43.23874" lon="6.40536">
        <ele>277</ele>
        <time>2017-02-09T11:19:49+01:00</time>
      </trkpt>
      <trkpt lat="43.23843" lon="6.40493">
        <ele>283</ele>
        <time>2017-02-09T11:19:54+01:00</time>
      </trkpt>
      <trkpt lat="43.23816" lon="6.4047">
        <ele>291</ele>
        <time>2017-02-09T11:19:59+01:00</time>
      </trkpt>
      <trkpt lat="43.23753" lon="6.40423">
        <ele>302</ele>
        <time>2017-02-09T11:20:04+01:00</time>
      </trkpt>
      <trkpt lat="43.23715" lon="6.40445">
        <ele>312</ele>
        <time>2017-02-09T11:20:09+01:00</time>
      </trkpt>
      <trkpt lat="43.23681" lon="6.4042">
        <ele>318</ele>
        <time>2017-02-09T11:20:14+01:00</time>
      </trkpt>
      <trkpt lat="43.23668" lon="6.40475">
        <ele>320</ele>
        <time>2017-02-09T11:20:19+01:00</time>
      </trkpt>
      <trkpt lat="43.23645" lon="6.40492">
        <ele>326</ele>
        <time>2017-02-09T11:20:24+01:00</time>
      </trkpt>
      <trkpt lat="43.23651" lon="6.40566">
        <ele>332</ele>
        <time>2017-02-09T11:20:29+01:00</time>
      </trkpt>
      <trkpt lat="43.23638" lon="6.40593">
        <ele>339</ele>
        <time>2017-02-09T11:20:34+01:00</time>
      </trkpt>
      <trkpt lat="43.23693" lon="6.40655">
        <ele>346</ele>
        <time>2017-02-09T11:20:39+01:00</time>
      </trkpt>
      <trkpt lat="43.23743" lon="6.40669">
        <ele>344</ele>
        <time>2017-02-09T11:20:44+01:00</time>
      </trkpt>
      <trkpt lat="43.23764" lon="6.40743">
        <ele>345</ele>
        <time>2017-02-09T11:20:49+01:00</time>
      </trkpt>
      <trkpt lat="43.2371" lon="6.40868">
        <ele>350</ele>
        <time>2017-02-09T11:20:54+01:00</time>
      </trkpt>
      <trkpt lat="43.23701" lon="6.40785">
        <ele>360</ele>
        <time>2017-02-09T11:20:59+01:00</time>
      </trkpt>
      <trkpt lat="43.23677" lon="6.4074">
        <ele>362</ele>
        <time>2017-02-09T11:21:04+01:00</time>
      </trkpt>
      <trkpt lat="43.23641" lon="6.40709">
        <ele>365</ele>
        <time>2017-02-09T11:21:09+01:00</time>
      </trkpt>
      <trkpt lat="43.23611" lon="6.40672">
        <ele>365</ele>
        <time>2017-02-09T11:21:14+01:00</time>
      </trkpt>
      <trkpt lat="43.2357" lon="6.40662">
        <ele>372</ele>
        <time>2017-02-09T11:21:19+01:00</time>
      </trkpt>
      <trkpt lat="43.23607" lon="6.40711">
        <ele>374</ele>
        <time>2017-02-09T11:21:24+01:00</time>
      </trkpt>
      <trkpt lat="43.23632" lon="6.40779">
        <ele>377</ele>
        <time>2017-02-09T11:21:29+01:00</time>
      </trkpt>
      <trkpt lat="43.23623" lon="6.40847">
        <ele>381</ele>
        <time>2017-02-09T11:21:34+01:00</time>
      </trkpt>
      <trkpt lat="43.23607" lon="6.40779">
        <ele>384</ele>
        <time>2017-02-09T11:21:39+01:00</time>
      </trkpt>
      <trkpt lat="43.23567" lon="6.40719">
        <ele>386</ele>
        <time>2017-02-09T11:21:44+01:00</time>
      </trkpt>
      <trkpt lat="43.23485" lon="6.40664">
        <ele>395</ele>
        <time>2017-02-09T11:21:49+01:00</time>
      </trkpt>
      <trkpt lat="43.23442" lon="6.40621">
        <ele>398</ele>
        <time>2017-02-09T11:21:54+01:00</time>
      </trkpt>
      <trkpt lat="43.23372" lon="6.40584">
        <ele>413</ele>
        <time>2017-02-09T11:21:59+01:00</time>
      </trkpt>
      <trkpt lat="43.23372" lon="6.40553">
        <ele>415</ele>
        <time>2017-02-09T11:22:04+01:00</time>
      </trkpt>
      <trkpt lat="43.23435" lon="6.40482">
        <ele>397</ele>
        <time>2017-02-09T11:22:09+01:00</time>
      </trkpt>
      <trkpt lat="43.23415" lon="6.40389">
        <ele>407</ele>
        <time>2017-02-09T11:22:14+01:00</time>
      </trkpt>
      <trkpt lat="43.23414" lon="6.4035">
        <ele>407</ele>
        <time>2017-02-09T11:22:19+01:00</time>
      </trkpt>
      <trkpt lat="43.23382" lon="6.40266">
        <ele>427</ele>
        <time>2017-02-09T11:22:24+01:00</time>
      </trkpt>
      <trkpt lat="43.23462" lon="6.40164">
        <ele>426</ele>
        <time>2017-02-09T11:22:29+01:00</time>
      </trkpt>
      <trkpt lat="43.23504" lon="6.40152">
        <ele>417</ele>
        <time>2017-02-09T11:22:34+01:00</time>
      </trkpt>
      <trkpt lat="43.23465" lon="6.39976">
        <ele>429</ele>
        <time>2017-02-09T11:22:39+01:00</time>
      </trkpt>
      <trkpt lat="43.23505" lon="6.40151">
        <ele>417</ele>
        <time>2017-02-09T11:22:44+01:00</time>
      </trkpt>
      <trkpt lat="43.23459" lon="6.40169">
        <ele>425</ele>
        <time>2017-02-09T11:22:49+01:00</time>
      </trkpt>
      <trkpt lat="43.23385" lon="6.40265">
        <ele>426</ele>
        <time>2017-02-09T11:22:54+01:00</time>
      </trkpt>
      <trkpt lat="43.23413" lon="6.4035">
        <ele>407</ele>
        <time>2017-02-09T11:22:59+01:00</time>
      </trkpt>
      <trkpt lat="43.23414" lon="6.40387">
        <ele>407</ele>
        <time>2017-02-09T11:23:04+01:00</time>
      </trkpt>
      <trkpt lat="43.23434" lon="6.4048">
        <ele>398</ele>
        <time>2017-02-09T11:23:09+01:00</time>
      </trkpt>
      <trkpt lat="43.23375" lon="6.4055">
        <ele>414</ele>
        <time>2017-02-09T11:23:14+01:00</time>
      </trkpt>
      <trkpt lat="43.23372" lon="6.40582">
        <ele>413</ele>
        <time>2017-02-09T11:23:19+01:00</time>
      </trkpt>
      <trkpt lat="43.2344" lon="6.4062">
        <ele>398</ele>
        <time>2017-02-09T11:23:24+01:00</time>
      </trkpt>
      <trkpt lat="43.23485" lon="6.40666">
        <ele>396</ele>
        <time>2017-02-09T11:23:29+01:00</time>
      </trkpt>
      <trkpt lat="43.23568" lon="6.4072">
        <ele>386</ele>
        <time>2017-02-09T11:23:34+01:00</time>
      </trkpt>
      <trkpt lat="43.23607" lon="6.40779">
        <ele>384</ele>
        <time>2017-02-09T11:23:39+01:00</time>
      </trkpt>
      <trkpt lat="43.23623" lon="6.40848">
        <ele>381</ele>
        <time>2017-02-09T11:23:44+01:00</time>
      </trkpt>
      <trkpt lat="43.23598" lon="6.40916">
        <ele>379</ele>
        <time>2017-02-09T11:23:49+01:00</time>
      </trkpt>
      <trkpt lat="43.23555" lon="6.40944">
        <ele>387</ele>
        <time>2017-02-09T11:23:54+01:00</time>
      </trkpt>
      <trkpt lat="43.23523" lon="6.40987">
        <ele>386</ele>
        <time>2017-02-09T11:23:59+01:00</time>
      </trkpt>
      <trkpt lat="43.23478" lon="6.41028">
        <ele>388</ele>
        <time>2017-02-09T11:24:04+01:00</time>
      </trkpt>
      <trkpt lat="43.2338" lon="6.41117">
        <ele>378</ele>
        <time>2017-02-09T11:24:09+01:00</time>
      </trkpt>
      <trkpt lat="43.23336" lon="6.41151">
        <ele>376</ele>
        <time>2017-02-09T11:24:14+01:00</time>
      </trkpt>
      <trkpt lat="43.23309" lon="6.4115">
        <ele>373</ele>
        <time>2017-02-09T11:24:19+01:00</time>
      </trkpt>
      <trkpt lat="43.23265" lon="6.41113">
        <ele>375</ele>
        <time>2017-02-09T11:24:24+01:00</time>
      </trkpt>
      <trkpt lat="43.23215" lon="6.41098">
        <ele>370</ele>
        <time>2017-02-09T11:24:29+01:00</time>
      </trkpt>
      <trkpt lat="43.23165" lon="6.4107">
        <ele>365</ele>
        <time>2017-02-09T11:24:34+01:00</time>
      </trkpt>
      <trkpt lat="43.23094" lon="6.409">
        <ele>379</ele>
        <time>2017-02-09T11:24:39+01:00</time>
      </trkpt>
      <trkpt lat="43.2308" lon="6.40977">
        <ele>365</ele>
        <time>2017-02-09T11:24:44+01:00</time>
      </trkpt>
      <trkpt lat="43.23059" lon="6.41056">
        <ele>353</ele>
        <time>2017-02-09T11:24:49+01:00</time>
      </trkpt>
      <trkpt lat="43.23006" lon="6.41106">
        <ele>345</ele>
        <time>2017-02-09T11:24:54+01:00</time>
      </trkpt>
      <trkpt lat="43.22972" lon="6.41108">
        <ele>345</ele>
        <time>2017-02-09T11:24:59+01:00</time>
      </trkpt>
      <trkpt lat="43.22945" lon="6.4108">
        <ele>350</ele>
        <time>2017-02-09T11:25:04+01:00</time>
      </trkpt>
      <trkpt lat="43.22936" lon="6.41032">
        <ele>360</ele>
        <time>2017-02-09T11:25:09+01:00</time>
      </trkpt>
      <trkpt lat="43.22904" lon="6.41086">
        <ele>353</ele>
        <time>2017-02-09T11:25:14+01:00</time>
      </trkpt>
      <trkpt lat="43.22909" lon="6.41164">
        <ele>344</ele>
        <time>2017-02-09T11:25:19+01:00</time>
      </trkpt>
      <trkpt lat="43.22919" lon="6.41235">
        <ele>335</ele>
        <time>2017-02-09T11:25:24+01:00</time>
      </trkpt>
      <trkpt lat="43.22909" lon="6.41309">
        <ele>332</ele>
        <time>2017-02-09T11:25:29+01:00</time>
      </trkpt>
      <trkpt lat="43.22912" lon="6.41433">
        <ele>323</ele>
        <time>2017-02-09T11:25:34+01:00</time>
      </trkpt>
      <trkpt lat="43.2293" lon="6.41512">
        <ele>315</ele>
        <time>2017-02-09T11:25:39+01:00</time>
      </trkpt>
      <trkpt lat="43.22885" lon="6.41542">
        <ele>309</ele>
        <time>2017-02-09T11:25:44+01:00</time>
      </trkpt>
      <trkpt lat="43.2283" lon="6.4152">
        <ele>307</ele>
        <time>2017-02-09T11:25:49+01:00</time>
      </trkpt>
      <trkpt lat="43.22747" lon="6.4143">
        <ele>302</ele>
        <time>2017-02-09T11:25:54+01:00</time>
      </trkpt>
      <trkpt lat="43.22786" lon="6.41641">
        <ele>258</ele>
        <time>2017-02-09T11:25:59+01:00</time>
      </trkpt>
      <trkpt lat="43.2286" lon="6.41682">
        <ele>268</ele>
        <time>2017-02-09T11:26:04+01:00</time>
      </trkpt>
      <trkpt lat="43.22878" lon="6.41758">
        <ele>253</ele>
        <time>2017-02-09T11:26:09+01:00</time>
      </trkpt>
      <trkpt lat="43.22907" lon="6.41809">
        <ele>254</ele>
        <time>2017-02-09T11:26:14+01:00</time>
      </trkpt>
      <trkpt lat="43.22912" lon="6.41901">
        <ele>234</ele>
        <time>2017-02-09T11:26:19+01:00</time>
      </trkpt>
      <trkpt lat="43.22951" lon="6.41942">
        <ele>239</ele>
        <time>2017-02-09T11:26:24+01:00</time>
      </trkpt>
      <trkpt lat="43.22962" lon="6.42027">
        <ele>217</ele>
        <time>2017-02-09T11:26:29+01:00</time>
      </trkpt>
      <trkpt lat="43.23011" lon="6.42087">
        <ele>209</ele>
        <time>2017-02-09T11:26:34+01:00</time>
      </trkpt>
      <trkpt lat="43.22981" lon="6.42121">
        <ele>189</ele>
        <time>2017-02-09T11:26:39+01:00</time>
      </trkpt>
      <trkpt lat="43.22981" lon="6.42154">
        <ele>176</ele>
        <time>2017-02-09T11:26:44+01:00</time>
      </trkpt>
      <trkpt lat="43.23059" lon="6.42139">
        <ele>192</ele>
        <time>2017-02-09T11:26:49+01:00</time>
      </trkpt>
      <trkpt lat="43.23102" lon="6.42197">
        <ele>177</ele>
        <time>2017-02-09T11:26:54+01:00</time>
      </trkpt>
      <trkpt lat="43.23157" lon="6.42229">
        <ele>180</ele>
        <time>2017-02-09T11:26:59+01:00</time>
      </trkpt>
      <trkpt lat="43.23176" lon="6.42351">
        <ele>150</ele>
        <time>2017-02-09T11:27:04+01:00</time>
      </trkpt>
      <trkpt lat="43.23208" lon="6.42434">
        <ele>140</ele>
        <time>2017-02-09T11:27:09+01:00</time>
      </trkpt>
      <trkpt lat="43.23238" lon="6.42448">
        <ele>146</ele>
        <time>2017-02-09T11:27:14+01:00</time>
      </trkpt>
      <trkpt lat="43.23303" lon="6.42544">
        <ele>136</ele>
        <time>2017-02-09T11:27:19+01:00</time>
      </trkpt>
      <trkpt lat="43.23328" lon="6.42616">
        <ele>120</ele>
        <time>2017-02-09T11:27:24+01:00</time>
      </trkpt>
      <trkpt lat="43.23393" lon="6.42677">
        <ele>111</ele>
        <time>2017-02-09T11:27:29+01:00</time>
      </trkpt>
      <trkpt lat="43.2338" lon="6.42692">
        <ele>107</ele>
        <time>2017-02-09T11:27:34+01:00</time>
      </trkpt>
      <trkpt lat="43.23388" lon="6.42727">
        <ele>102</ele>
        <time>2017-02-09T11:27:39+01:00</time>
      </trkpt>
      <trkpt lat="43.23343" lon="6.4271">
        <ele>102</ele>
        <time>2017-02-09T11:27:44+01:00</time>
      </trkpt>
      <trkpt lat="43.23303" lon="6.42672">
        <ele>101</ele>
        <time>2017-02-09T11:27:49+01:00</time>
      </trkpt>
      <trkpt lat="43.23236" lon="6.42611">
        <ele>105</ele>
        <time>2017-02-09T11:27:54+01:00</time>
      </trkpt>
      <trkpt lat="43.23215" lon="6.42609">
        <ele>103</ele>
        <time>2017-02-09T11:27:59+01:00</time>
      </trkpt>
      <trkpt lat="43.23179" lon="6.42579">
        <ele>103</ele>
        <time>2017-02-09T11:28:04+01:00</time>
      </trkpt>
      <trkpt lat="43.23151" lon="6.42535">
        <ele>108</ele>
        <time>2017-02-09T11:28:09+01:00</time>
      </trkpt>
      <trkpt lat="43.23109" lon="6.42448">
        <ele>113</ele>
        <time>2017-02-09T11:28:14+01:00</time>
      </trkpt>
      <trkpt lat="43.2309" lon="6.42477">
        <ele>109</ele>
        <time>2017-02-09T11:28:19+01:00</time>
      </trkpt>
      <trkpt lat="43.23127" lon="6.42707">
        <ele>108</ele>
        <time>2017-02-09T11:28:24+01:00</time>
      </trkpt>
      <trkpt lat="43.23161" lon="6.42724">
        <ele>99</ele>
        <time>2017-02-09T11:28:29+01:00</time>
      </trkpt>
      <trkpt lat="43.23177" lon="6.42742">
        <ele>96</ele>
        <time>2017-02-09T11:28:34+01:00</time>
      </trkpt>
      <trkpt lat="43.23167" lon="6.42907">
        <ele>101</ele>
        <time>2017-02-09T11:28:39+01:00</time>
      </trkpt>
      <trkpt lat="43.23124" lon="6.43078">
        <ele>100</ele>
        <time>2017-02-09T11:28:44+01:00</time>
      </trkpt>
      <trkpt lat="43.23056" lon="6.43105">
        <ele>118</ele>
        <time>2017-02-09T11:28:49+01:00</time>
      </trkpt>
      <trkpt lat="43.23076" lon="6.43184">
        <ele>100</ele>
        <time>2017-02-09T11:28:54+01:00</time>
      </trkpt>
      <trkpt lat="43.23056" lon="6.43238">
        <ele>100</ele>
        <time>2017-02-09T11:28:59+01:00</time>
      </trkpt>
      <trkpt lat="43.23009" lon="6.43279">
        <ele>110</ele>
        <time>2017-02-09T11:29:04+01:00</time>
      </trkpt>
      <trkpt lat="43.23006" lon="6.43328">
        <ele>108</ele>
        <time>2017-02-09T11:29:09+01:00</time>
      </trkpt>
      <trkpt lat="43.22995" lon="6.4335">
        <ele>110</ele>
        <time>2017-02-09T11:29:14+01:00</time>
      </trkpt>
      <trkpt lat="43.22998" lon="6.43383">
        <ele>108</ele>
        <time>2017-02-09T11:29:19+01:00</time>
      </trkpt>
      <trkpt lat="43.22997" lon="6.43413">
        <ele>107</ele>
        <time>2017-02-09T11:29:24+01:00</time>
      </trkpt>
      <trkpt lat="43.22996" lon="6.43414">
        <ele>107</ele>
        <time>2017-02-09T11:29:29+01:00</time>
      </trkpt>
      <trkpt lat="43.22983" lon="6.43473">
        <ele>111</ele>
        <time>2017-02-09T11:29:34+01:00</time>
      </trkpt>
      <trkpt lat="43.22975" lon="6.43557">
        <ele>112</ele>
        <time>2017-02-09T11:29:39+01:00</time>
      </trkpt>
      <trkpt lat="43.22984" lon="6.43612">
        <ele>105</ele>
        <time>2017-02-09T11:29:44+01:00</time>
      </trkpt>
      <trkpt lat="43.22972" lon="6.43647">
        <ele>102</ele>
        <time>2017-02-09T11:29:49+01:00</time>
      </trkpt>
      <trkpt lat="43.22923" lon="6.43676">
        <ele>104</ele>
        <time>2017-02-09T11:29:54+01:00</time>
      </trkpt>
      <trkpt lat="43.22861" lon="6.43694">
        <ele>101</ele>
        <time>2017-02-09T11:29:59+01:00</time>
      </trkpt>
      <trkpt lat="43.22769" lon="6.43649">
        <ele>125</ele>
        <time>2017-02-09T11:30:04+01:00</time>
      </trkpt>
      <trkpt lat="43.22777" lon="6.43765">
        <ele>106</ele>
        <time>2017-02-09T11:30:09+01:00</time>
      </trkpt>
      <trkpt lat="43.22756" lon="6.43797">
        <ele>108</ele>
        <time>2017-02-09T11:30:14+01:00</time>
      </trkpt>
      <trkpt lat="43.22756" lon="6.43826">
        <ele>104</ele>
        <time>2017-02-09T11:30:19+01:00</time>
      </trkpt>
      <trkpt lat="43.22719" lon="6.43889">
        <ele>105</ele>
        <time>2017-02-09T11:30:24+01:00</time>
      </trkpt>
      <trkpt lat="43.22661" lon="6.43958">
        <ele>100</ele>
        <time>2017-02-09T11:30:29+01:00</time>
      </trkpt>
      <trkpt lat="43.22485" lon="6.4389">
        <ele>120</ele>
        <time>2017-02-09T11:30:34+01:00</time>
      </trkpt>
      <trkpt lat="43.22522" lon="6.44005">
        <ele>105</ele>
        <time>2017-02-09T11:30:39+01:00</time>
      </trkpt>
      <trkpt lat="43.22497" lon="6.4404">
        <ele>114</ele>
        <time>2017-02-09T11:30:44+01:00</time>
      </trkpt>
      <trkpt lat="43.2259" lon="6.44126">
        <ele>109</ele>
        <time>2017-02-09T11:30:49+01:00</time>
      </trkpt>
      <trkpt lat="43.22616" lon="6.44186">
        <ele>112</ele>
        <time>2017-02-09T11:30:54+01:00</time>
      </trkpt>
      <trkpt lat="43.2266" lon="6.44236">
        <ele>104</ele>
        <time>2017-02-09T11:30:59+01:00</time>
      </trkpt>
      <trkpt lat="43.22678" lon="6.44327">
        <ele>98</ele>
        <time>2017-02-09T11:31:04+01:00</time>
      </trkpt>
      <trkpt lat="43.22638" lon="6.44373">
        <ele>105</ele>
        <time>2017-02-09T11:31:09+01:00</time>
      </trkpt>
      <trkpt lat="43.22616" lon="6.44435">
        <ele>106</ele>
        <time>2017-02-09T11:31:14+01:00</time>
      </trkpt>
      <trkpt lat="43.22618" lon="6.44474">
        <ele>100</ele>
        <time>2017-02-09T11:31:19+01:00</time>
      </trkpt>
      <trkpt lat="43.22601" lon="6.4451">
        <ele>103</ele>
        <time>2017-02-09T11:31:24+01:00</time>
      </trkpt>
      <trkpt lat="43.226" lon="6.44581">
        <ele>95</ele>
        <time>2017-02-09T11:31:29+01:00</time>
      </trkpt>
      <trkpt lat="43.22575" lon="6.44615">
        <ele>104</ele>
        <time>2017-02-09T11:31:34+01:00</time>
      </trkpt>
      <trkpt lat="43.22578" lon="6.44668">
        <ele>100</ele>
        <time>2017-02-09T11:31:39+01:00</time>
      </trkpt>
      <trkpt lat="43.22604" lon="6.44715">
        <ele>89</ele>
        <time>2017-02-09T11:31:44+01:00</time>
      </trkpt>
      <trkpt lat="43.22601" lon="6.44748">
        <ele>90</ele>
        <time>2017-02-09T11:31:49+01:00</time>
      </trkpt>
      <trkpt lat="43.22585" lon="6.44778">
        <ele>92</ele>
        <time>2017-02-09T11:31:54+01:00</time>
      </trkpt>
      <trkpt lat="43.22555" lon="6.44795">
        <ele>99</ele>
        <time>2017-02-09T11:31:59+01:00</time>
      </trkpt>
      <trkpt lat="43.22552" lon="6.44831">
        <ele>96</ele>
        <time>2017-02-09T11:32:04+01:00</time>
      </trkpt>
      <trkpt lat="43.22574" lon="6.44886">
        <ele>88</ele>
        <time>2017-02-09T11:32:09+01:00</time>
      </trkpt>
      <trkpt lat="43.22547" lon="6.44939">
        <ele>94</ele>
        <time>2017-02-09T11:32:14+01:00</time>
      </trkpt>
      <trkpt lat="43.22563" lon="6.44984">
        <ele>91</ele>
        <time>2017-02-09T11:32:19+01:00</time>
      </trkpt>
      <trkpt lat="43.22564" lon="6.44982">
        <ele>91</ele>
        <time>2017-02-09T11:32:24+01:00</time>
      </trkpt>
      <trkpt lat="43.22574" lon="6.44982">
        <ele>88</ele>
        <time>2017-02-09T11:32:29+01:00</time>
      </trkpt>
    </trkseg>
  </trk>
</gpx>